sensor_id;sensor_type;location;lat;lon;timestamp;pressure;altitude;pressure_sealevel;temperature;humidity
57606;BME280;43430;48.204;11.556;2023-07-20T00:02:19;95738.16;;;20.38;100.00
57606;BME280;43430;48.204;11.556;2023-07-20T00:04:44;95735.63;;;20.28;100.00
57606;BME280;43430;48.204;11.556;2023-07-20T00:07:10;95736.41;;;20.28;100.00
57606;BME280;43430;48.204;11.556;2023-07-20T00:09:35;95738.00;;;20.29;100.00
57606;BME280;43430;48.204;11.556;2023-07-20T00:12:00;95745.97;;;20.34;100.00
57606;BME280;43430;48.204;11.556;2023-07-20T00:14:26;95751.59;;;20.33;100.00
57606;BME280;43430;48.204;11.556;2023-07-20T00:16:51;95742.28;;;20.30;100.00
57606;BME280;43430;48.204;11.556;2023-07-20T00:19:24;95741.41;;;20.35;100.00
57606;BME280;43430;48.204;11.556;2023-07-20T00:21:49;95736.06;;;20.35;100.00
57606;BME280;43430;48.204;11.556;2023-07-20T00:24:15;95741.47;;;20.30;100.00
57606;BME280;43430;48.204;11.556;2023-07-20T00:26:40;95741.03;;;20.23;100.00
57606;BME280;43430;48.204;11.556;2023-07-20T00:29:06;95748.28;;;20.22;100.00
57606;BME280;43430;48.204;11.556;2023-07-20T00:31:31;95743.00;;;20.17;100.00
57606;BME280;43430;48.204;11.556;2023-07-20T00:33:56;95740.75;;;20.24;100.00
57606;BME280;43430;48.204;11.556;2023-07-20T00:36:22;95735.41;;;20.24;100.00
57606;BME280;43430;48.204;11.556;2023-07-20T00:38:47;95745.38;;;20.19;100.00
57606;BME280;43430;48.204;11.556;2023-07-20T00:41:12;95743.94;;;20.26;100.00
57606;BME280;43430;48.204;11.556;2023-07-20T00:43:38;95750.91;;;20.27;100.00
57606;BME280;43430;48.204;11.556;2023-07-20T00:46:03;95762.91;;;20.30;100.00
57606;BME280;43430;48.204;11.556;2023-07-20T00:48:30;95755.06;;;20.33;100.00
57606;BME280;43430;48.204;11.556;2023-07-20T00:50:57;95747.66;;;20.30;100.00
57606;BME280;43430;48.204;11.556;2023-07-20T00:53:23;95755.69;;;20.30;100.00
57606;BME280;43430;48.204;11.556;2023-07-20T00:55:48;95756.31;;;20.22;100.00
57606;BME280;43430;48.204;11.556;2023-07-20T00:58:14;95757.19;;;20.18;100.00
57606;BME280;43430;48.204;11.556;2023-07-20T01:00:39;95754.91;;;20.06;100.00
57606;BME280;43430;48.204;11.556;2023-07-20T01:03:05;95754.75;;;19.97;100.00
57606;BME280;43430;48.204;11.556;2023-07-20T01:05:38;95755.25;;;19.99;100.00
57606;BME280;43430;48.204;11.556;2023-07-20T01:08:20;95750.41;;;20.01;100.00
57606;BME280;43430;48.204;11.556;2023-07-20T01:10:57;95756.78;;;20.05;100.00
57606;BME280;43430;48.204;11.556;2023-07-20T01:13:25;95761.47;;;19.95;100.00
57606;BME280;43430;48.204;11.556;2023-07-20T01:15:56;95759.53;;;20.00;100.00
57606;BME280;43430;48.204;11.556;2023-07-20T01:18:23;95741.81;;;20.04;100.00
57606;BME280;43430;48.204;11.556;2023-07-20T01:20:48;95751.88;;;19.94;100.00
57606;BME280;43430;48.204;11.556;2023-07-20T01:23:25;95752.13;;;19.92;100.00
57606;BME280;43430;48.204;11.556;2023-07-20T01:29:42;95755.72;;;20.06;100.00
57606;BME280;43430;48.204;11.556;2023-07-20T01:32:12;95760.84;;;20.03;100.00
57606;BME280;43430;48.204;11.556;2023-07-20T01:34:39;95756.66;;;19.97;100.00
57606;BME280;43430;48.204;11.556;2023-07-20T01:37:05;95759.81;;;19.99;100.00
57606;BME280;43430;48.204;11.556;2023-07-20T01:39:32;95750.41;;;20.01;100.00
57606;BME280;43430;48.204;11.556;2023-07-20T01:41:58;95750.09;;;19.84;100.00
57606;BME280;43430;48.204;11.556;2023-07-20T01:44:24;95749.00;;;19.85;100.00
57606;BME280;43430;48.204;11.556;2023-07-20T01:46:49;95753.56;;;19.84;100.00
57606;BME280;43430;48.204;11.556;2023-07-20T01:49:14;95750.97;;;19.79;100.00
57606;BME280;43430;48.204;11.556;2023-07-20T01:51:40;95753.06;;;19.82;100.00
57606;BME280;43430;48.204;11.556;2023-07-20T01:54:06;95757.22;;;19.94;100.00
57606;BME280;43430;48.204;11.556;2023-07-20T01:56:31;95751.72;;;20.04;100.00
57606;BME280;43430;48.204;11.556;2023-07-20T01:58:56;95755.03;;;19.96;100.00
57606;BME280;43430;48.204;11.556;2023-07-20T02:01:22;95758.34;;;19.87;100.00
57606;BME280;43430;48.204;11.556;2023-07-20T02:03:47;95757.00;;;19.90;100.00
57606;BME280;43430;48.204;11.556;2023-07-20T02:06:12;95756.19;;;19.89;100.00
57606;BME280;43430;48.204;11.556;2023-07-20T02:08:38;95751.34;;;19.91;100.00
57606;BME280;43430;48.204;11.556;2023-07-20T02:11:03;95751.97;;;19.83;100.00
57606;BME280;43430;48.204;11.556;2023-07-20T02:13:30;95760.97;;;19.92;100.00
57606;BME280;43430;48.204;11.556;2023-07-20T02:15:55;95774.63;;;19.91;100.00
57606;BME280;43430;48.204;11.556;2023-07-20T02:18:20;95763.13;;;19.90;100.00
57606;BME280;43430;48.204;11.556;2023-07-20T02:20:46;95760.28;;;19.82;100.00
57606;BME280;43430;48.204;11.556;2023-07-20T02:23:11;95758.47;;;19.77;100.00
57606;BME280;43430;48.204;11.556;2023-07-20T02:25:37;95766.56;;;19.72;100.00
57606;BME280;43430;48.204;11.556;2023-07-20T02:28:03;95770.97;;;19.82;100.00
57606;BME280;43430;48.204;11.556;2023-07-20T02:30:29;95767.28;;;19.78;100.00
57606;BME280;43430;48.204;11.556;2023-07-20T02:32:54;95764.84;;;19.81;100.00
57606;BME280;43430;48.204;11.556;2023-07-20T02:35:22;95767.97;;;19.88;100.00
57606;BME280;43430;48.204;11.556;2023-07-20T02:37:47;95767.28;;;19.78;100.00
57606;BME280;43430;48.204;11.556;2023-07-20T02:40:13;95763.56;;;19.79;100.00
57606;BME280;43430;48.204;11.556;2023-07-20T02:42:38;95767.63;;;19.71;100.00
57606;BME280;43430;48.204;11.556;2023-07-20T02:45:05;95775.72;;;19.61;100.00
57606;BME280;43430;48.204;11.556;2023-07-20T02:47:30;95765.03;;;19.61;100.00
57606;BME280;43430;48.204;11.556;2023-07-20T02:49:56;95775.50;;;19.57;100.00
57606;BME280;43430;48.204;11.556;2023-07-20T02:52:22;95774.78;;;19.52;100.00
57606;BME280;43430;48.204;11.556;2023-07-20T02:54:48;95770.94;;;19.63;100.00
57606;BME280;43430;48.204;11.556;2023-07-20T02:57:13;95782.69;;;19.62;100.00
57606;BME280;43430;48.204;11.556;2023-07-20T02:59:39;95787.50;;;19.65;100.00
57606;BME280;43430;48.204;11.556;2023-07-20T03:02:04;95788.50;;;19.40;100.00
57606;BME280;43430;48.204;11.556;2023-07-20T03:04:30;95788.19;;;19.47;100.00
57606;BME280;43430;48.204;11.556;2023-07-20T03:06:55;95789.38;;;19.35;100.00
57606;BME280;43430;48.204;11.556;2023-07-20T03:09:20;95787.56;;;19.26;100.00
57606;BME280;43430;48.204;11.556;2023-07-20T03:11:46;95789.13;;;19.32;100.00
57606;BME280;43430;48.204;11.556;2023-07-20T03:14:11;95793.53;;;19.17;100.00
57606;BME280;43430;48.204;11.556;2023-07-20T03:16:37;95800.38;;;19.29;100.00
57606;BME280;43430;48.204;11.556;2023-07-20T03:19:03;95793.69;;;19.31;100.00
57606;BME280;43430;48.204;11.556;2023-07-20T03:21:29;95795.13;;;19.18;100.00
57606;BME280;43430;48.204;11.556;2023-07-20T03:23:54;95799.19;;;19.11;100.00
57606;BME280;43430;48.204;11.556;2023-07-20T03:26:19;95798.41;;;19.10;100.00
57606;BME280;43430;48.204;11.556;2023-07-20T03:28:45;95805.34;;;19.11;100.00
57606;BME280;43430;48.204;11.556;2023-07-20T03:31:10;95829.94;;;19.13;100.00
57606;BME280;43430;48.204;11.556;2023-07-20T03:33:36;95821.41;;;19.06;100.00
57606;BME280;43430;48.204;11.556;2023-07-20T03:36:01;95812.59;;;19.06;100.00
57606;BME280;43430;48.204;11.556;2023-07-20T03:38:27;95802.81;;;18.96;100.00
57606;BME280;43430;48.204;11.556;2023-07-20T03:41:01;95814.75;;;19.04;100.00
57606;BME280;43430;48.204;11.556;2023-07-20T03:43:27;95816.34;;;19.05;100.00
57606;BME280;43430;48.204;11.556;2023-07-20T03:45:53;95816.88;;;19.07;100.00
57606;BME280;43430;48.204;11.556;2023-07-20T03:48:21;95813.91;;;19.08;100.00
57606;BME280;43430;48.204;11.556;2023-07-20T03:50:48;95812.34;;;19.07;100.00
57606;BME280;43430;48.204;11.556;2023-07-20T03:53:15;95812.03;;;19.09;100.00
57606;BME280;43430;48.204;11.556;2023-07-20T03:55:51;95823.03;;;19.02;100.00
57606;BME280;43430;48.204;11.556;2023-07-20T03:58:17;95819.56;;;19.02;100.00
57606;BME280;43430;48.204;11.556;2023-07-20T04:00:46;95822.00;;;19.03;100.00
57606;BME280;43430;48.204;11.556;2023-07-20T04:03:13;95823.03;;;19.02;100.00
57606;BME280;43430;48.204;11.556;2023-07-20T04:05:38;95824.34;;;19.10;100.00
57606;BME280;43430;48.204;11.556;2023-07-20T04:08:04;95819.00;;;19.10;100.00
57606;BME280;43430;48.204;11.556;2023-07-20T04:10:29;95824.84;;;19.12;100.00
57606;BME280;43430;48.204;11.556;2023-07-20T04:12:55;95825.16;;;19.05;100.00
57606;BME280;43430;48.204;11.556;2023-07-20T04:15:20;95815.88;;;18.97;100.00
57606;BME280;43430;48.204;11.556;2023-07-20T04:17:45;95820.09;;;19.04;100.00
57606;BME280;43430;48.204;11.556;2023-07-20T04:20:11;95825.53;;;18.93;100.00
57606;BME280;43430;48.204;11.556;2023-07-20T04:22:36;95824.91;;;19.02;100.00
57606;BME280;43430;48.204;11.556;2023-07-20T04:25:03;95827.59;;;19.02;100.00
57606;BME280;43430;48.204;11.556;2023-07-20T04:27:28;95831.84;;;19.08;100.00
57606;BME280;43430;48.204;11.556;2023-07-20T04:29:54;95836.94;;;19.04;100.00
57606;BME280;43430;48.204;11.556;2023-07-20T04:32:19;95834.75;;;19.06;100.00
57606;BME280;43430;48.204;11.556;2023-07-20T04:34:44;95838.34;;;18.96;100.00
57606;BME280;43430;48.204;11.556;2023-07-20T04:37:10;95846.91;;;18.93;100.00
57606;BME280;43430;48.204;11.556;2023-07-20T04:39:35;95844.81;;;18.85;100.00
57606;BME280;43430;48.204;11.556;2023-07-20T04:42:00;95842.66;;;18.87;100.00
57606;BME280;43430;48.204;11.556;2023-07-20T04:44:26;95848.00;;;18.87;100.00
57606;BME280;43430;48.204;11.556;2023-07-20T04:46:51;95843.50;;;18.83;100.00
57606;BME280;43430;48.204;11.556;2023-07-20T04:49:16;95851.28;;;18.79;100.00
57606;BME280;43430;48.204;11.556;2023-07-20T04:51:42;95847.97;;;18.92;100.00
57606;BME280;43430;48.204;11.556;2023-07-20T04:54:07;95851.69;;;18.96;100.00
57606;BME280;43430;48.204;11.556;2023-07-20T04:56:33;95843.19;;;18.89;100.00
57606;BME280;43430;48.204;11.556;2023-07-20T04:58:58;95853.34;;;18.87;100.00
57606;BME280;43430;48.204;11.556;2023-07-20T05:01:24;95858.94;;;18.91;100.00
57606;BME280;43430;48.204;11.556;2023-07-20T05:03:49;95860.50;;;18.97;100.00
57606;BME280;43430;48.204;11.556;2023-07-20T05:06:15;95867.72;;;18.96;100.00
57606;BME280;43430;48.204;11.556;2023-07-20T05:08:41;95868.28;;;18.88;100.00
57606;BME280;43430;48.204;11.556;2023-07-20T05:11:06;95867.25;;;18.84;100.00
57606;BME280;43430;48.204;11.556;2023-07-20T05:13:32;95855.72;;;18.89;100.00
57606;BME280;43430;48.204;11.556;2023-07-20T05:15:58;95857.84;;;18.97;100.00
57606;BME280;43430;48.204;11.556;2023-07-20T05:18:23;95853.81;;;19.00;100.00
57606;BME280;43430;48.204;11.556;2023-07-20T05:20:49;95854.38;;;18.91;100.00
57606;BME280;43430;48.204;11.556;2023-07-20T05:23:17;95858.38;;;18.94;100.00
57606;BME280;43430;48.204;11.556;2023-07-20T05:25:43;95859.19;;;18.94;100.00
57606;BME280;43430;48.204;11.556;2023-07-20T05:28:09;95854.38;;;18.91;100.00
57606;BME280;43430;48.204;11.556;2023-07-20T05:30:34;95855.91;;;19.03;100.00
57606;BME280;43430;48.204;11.556;2023-07-20T05:32:59;95857.00;;;19.02;100.00
57606;BME280;43430;48.204;11.556;2023-07-20T05:35:26;95863.34;;;19.11;100.00
57606;BME280;43430;48.204;11.556;2023-07-20T05:37:51;95860.53;;;18.92;100.00
57606;BME280;43430;48.204;11.556;2023-07-20T05:40:17;95861.97;;;18.79;100.00
57606;BME280;43430;48.204;11.556;2023-07-20T05:42:46;95858.19;;;18.80;100.00
57606;BME280;43430;48.204;11.556;2023-07-20T05:45:14;95861.13;;;18.79;100.00
57606;BME280;43430;48.204;11.556;2023-07-20T05:47:41;95869.59;;;18.96;100.00
57606;BME280;43430;48.204;11.556;2023-07-20T05:50:06;95867.31;;;18.79;100.00
57606;BME280;43430;48.204;11.556;2023-07-20T05:52:32;95874.16;;;18.90;100.00
57606;BME280;43430;48.204;11.556;2023-07-20T05:54:57;95869.13;;;18.84;100.00
57606;BME280;43430;48.204;11.556;2023-07-20T05:57:23;95872.22;;;18.52;100.00
57606;BME280;43430;48.204;11.556;2023-07-20T05:59:49;95866.81;;;18.72;100.00
57606;BME280;43430;48.204;11.556;2023-07-20T06:02:14;95876.41;;;18.73;100.00
57606;BME280;43430;48.204;11.556;2023-07-20T06:04:40;95872.19;;;18.62;100.00
57606;BME280;43430;48.204;11.556;2023-07-20T06:07:05;95870.47;;;18.81;100.00
57606;BME280;43430;48.204;11.556;2023-07-20T06:09:33;95869.38;;;18.82;100.00
57606;BME280;43430;48.204;11.556;2023-07-20T06:11:58;95869.69;;;18.81;100.00
57606;BME280;43430;48.204;11.556;2023-07-20T06:14:24;95872.88;;;18.83;100.00
57606;BME280;43430;48.204;11.556;2023-07-20T06:16:49;95875.81;;;18.86;100.00
57606;BME280;43430;48.204;11.556;2023-07-20T06:19:14;95875.25;;;18.89;100.00
57606;BME280;43430;48.204;11.556;2023-07-20T06:21:40;95872.00;;;18.92;100.00
57606;BME280;43430;48.204;11.556;2023-07-20T06:24:06;95878.28;;;18.72;100.00
57606;BME280;43430;48.204;11.556;2023-07-20T06:26:31;95879.59;;;18.75;100.00
57606;BME280;43430;48.204;11.556;2023-07-20T06:29:03;95873.69;;;18.78;100.00
57606;BME280;43430;48.204;11.556;2023-07-20T06:31:28;95874.97;;;18.91;100.00
57606;BME280;43430;48.204;11.556;2023-07-20T06:33:56;95870.22;;;19.22;100.00
57606;BME280;43430;48.204;11.556;2023-07-20T06:36:22;95869.19;;;19.13;100.00
57606;BME280;43430;48.204;11.556;2023-07-20T06:38:47;95870.75;;;19.24;100.00
57606;BME280;43430;48.204;11.556;2023-07-20T06:41:13;95864.22;;;19.35;100.00
57606;BME280;43430;48.204;11.556;2023-07-20T06:43:38;95870.84;;;19.09;100.00
57606;BME280;43430;48.204;11.556;2023-07-20T06:46:03;95862.25;;;19.12;100.00
57606;BME280;43430;48.204;11.556;2023-07-20T06:48:29;95864.84;;;19.27;100.00
57606;BME280;43430;48.204;11.556;2023-07-20T06:50:55;95870.56;;;19.10;100.00
57606;BME280;43430;48.204;11.556;2023-07-20T06:53:20;95867.06;;;19.15;100.00
57606;BME280;43430;48.204;11.556;2023-07-20T06:55:45;95869.13;;;19.23;100.00
57606;BME280;43430;48.204;11.556;2023-07-20T06:58:11;95870.69;;;19.29;100.00
57606;BME280;43430;48.204;11.556;2023-07-20T07:00:37;95870.50;;;19.20;100.00
57606;BME280;43430;48.204;11.556;2023-07-20T07:03:02;95874.06;;;19.40;100.00
57606;BME280;43430;48.204;11.556;2023-07-20T07:05:28;95867.66;;;19.41;100.00
57606;BME280;43430;48.204;11.556;2023-07-20T07:07:53;95865.47;;;19.48;100.00
57606;BME280;43430;48.204;11.556;2023-07-20T07:10:18;95866.03;;;19.11;100.00
57606;BME280;43430;48.204;11.556;2023-07-20T07:12:44;95867.81;;;19.20;100.00
57606;BME280;43430;48.204;11.556;2023-07-20T07:15:09;95866.09;;;19.69;100.00
57606;BME280;43430;48.204;11.556;2023-07-20T07:17:36;95854.81;;;20.01;100.00
57606;BME280;43430;48.204;11.556;2023-07-20T07:20:01;95850.00;;;20.22;100.00
57606;BME280;43430;48.204;11.556;2023-07-20T07:22:27;95855.38;;;20.22;100.00
57606;BME280;43430;48.204;11.556;2023-07-20T07:24:52;95864.69;;;19.77;100.00
57606;BME280;43430;48.204;11.556;2023-07-20T07:27:19;95861.38;;;20.14;100.00
57606;BME280;43430;48.204;11.556;2023-07-20T07:29:44;95859.72;;;20.18;100.00
57606;BME280;43430;48.204;11.556;2023-07-20T07:32:10;95860.81;;;20.36;100.00
57606;BME280;43430;48.204;11.556;2023-07-20T07:34:36;95861.97;;;20.54;99.57
57606;BME280;43430;48.204;11.556;2023-07-20T07:37:02;95862.44;;;20.80;100.00
57606;BME280;43430;48.204;11.556;2023-07-20T07:39:28;95873.06;;;20.66;100.00
57606;BME280;43430;48.204;11.556;2023-07-20T07:41:56;95875.97;;;20.46;100.00
57606;BME280;43430;48.204;11.556;2023-07-20T07:44:21;95867.31;;;20.54;97.93
57606;BME280;43430;48.204;11.556;2023-07-20T07:46:47;95867.31;;;20.54;97.87
57606;BME280;43430;48.204;11.556;2023-07-20T07:49:12;95875.91;;;20.75;98.77
57606;BME280;43430;48.204;11.556;2023-07-20T07:51:37;95871.31;;;20.56;97.42
57606;BME280;43430;48.204;11.556;2023-07-20T07:54:03;95869.44;;;20.57;100.00
57606;BME280;43430;48.204;11.556;2023-07-20T07:56:29;95862.09;;;20.86;97.09
57606;BME280;43430;48.204;11.556;2023-07-20T07:58:54;95860.97;;;20.88;96.51
57606;BME280;43430;48.204;11.556;2023-07-20T08:01:20;95863.81;;;20.58;100.00
57606;BME280;43430;48.204;11.556;2023-07-20T08:03:45;95863.66;;;20.88;100.00
57606;BME280;43430;48.204;11.556;2023-07-20T08:06:13;95869.31;;;20.67;100.00
57606;BME280;43430;48.204;11.556;2023-07-20T08:08:39;95860.84;;;20.98;100.00
57606;BME280;43430;48.204;11.556;2023-07-20T08:11:05;95859.31;;;21.10;100.00
57606;BME280;43430;48.204;11.556;2023-07-20T08:13:30;95860.59;;;21.32;89.70
57606;BME280;43430;48.204;11.556;2023-07-20T08:15:56;95866.13;;;20.65;92.99
57606;BME280;43430;48.204;11.556;2023-07-20T08:18:22;95870.47;;;20.13;98.70
57606;BME280;43430;48.204;11.556;2023-07-20T08:20:47;95873.03;;;20.23;99.40
57606;BME280;43430;48.204;11.556;2023-07-20T08:23:14;95866.84;;;20.52;100.00
57606;BME280;43430;48.204;11.556;2023-07-20T08:25:39;95874.53;;;20.58;98.63
57606;BME280;43430;48.204;11.556;2023-07-20T08:28:09;95868.59;;;20.61;97.68
57606;BME280;43430;48.204;11.556;2023-07-20T08:30:41;95871.13;;;20.91;97.66
57606;BME280;43430;48.204;11.556;2023-07-20T08:33:07;95872.22;;;20.90;96.48
57606;BME280;43430;48.204;11.556;2023-07-20T08:35:33;95871.19;;;20.67;95.48
57606;BME280;43430;48.204;11.556;2023-07-20T08:37:58;95868.41;;;20.96;93.15
57606;BME280;43430;48.204;11.556;2023-07-20T08:40:24;95873.69;;;20.82;96.77
57606;BME280;43430;48.204;11.556;2023-07-20T08:42:50;95872.56;;;21.02;96.64
57606;BME280;43430;48.204;11.556;2023-07-20T08:45:16;95871.00;;;21.20;94.15
57606;BME280;43430;48.204;11.556;2023-07-20T08:47:43;95869.97;;;20.97;90.78
57606;BME280;43430;48.204;11.556;2023-07-20T08:50:11;95875.19;;;20.69;94.14
57606;BME280;43430;48.204;11.556;2023-07-20T08:52:37;95880.63;;;20.83;96.23
57606;BME280;43430;48.204;11.556;2023-07-20T08:55:03;95873.59;;;21.06;95.14
57606;BME280;43430;48.204;11.556;2023-07-20T08:57:33;95879.13;;;20.96;92.97
57606;BME280;43430;48.204;11.556;2023-07-20T09:00:02;95873.50;;;20.73;93.20
57606;BME280;43430;48.204;11.556;2023-07-20T09:02:30;95869.50;;;20.52;92.06
57606;BME280;43430;48.204;11.556;2023-07-20T09:05:00;95870.13;;;20.86;93.48
57606;BME280;43430;48.204;11.556;2023-07-20T09:07:25;95865.84;;;21.23;91.89
57606;BME280;43430;48.204;11.556;2023-07-20T09:09:51;95862.97;;;20.82;90.86
57606;BME280;43430;48.204;11.556;2023-07-20T09:12:16;95866.78;;;21.14;87.35
57606;BME280;43430;48.204;11.556;2023-07-20T09:14:45;95862.41;;;21.37;88.00
57606;BME280;43430;48.204;11.556;2023-07-20T09:17:14;95865.78;;;20.91;92.71
57606;BME280;43430;48.204;11.556;2023-07-20T09:19:47;95858.66;;;21.38;86.12
57606;BME280;43430;48.204;11.556;2023-07-20T09:22:12;95856.25;;;21.36;87.17
57606;BME280;43430;48.204;11.556;2023-07-20T09:24:38;95850.94;;;21.50;88.80
57606;BME280;43430;48.204;11.556;2023-07-20T09:27:04;95851.72;;;21.83;86.62
57606;BME280;43430;48.204;11.556;2023-07-20T09:29:29;95849.50;;;21.71;81.88
57606;BME280;43430;48.204;11.556;2023-07-20T09:34:25;95850.34;;;21.01;86.81
57606;BME280;43430;48.204;11.556;2023-07-20T09:36:51;95846.63;;;21.16;88.08
57606;BME280;43430;48.204;11.556;2023-07-20T09:39:17;95855.88;;;21.43;89.76
57606;BME280;43430;48.204;11.556;2023-07-20T09:41:42;95839.47;;;21.91;83.03
57606;BME280;43430;48.204;11.556;2023-07-20T09:44:08;95855.91;;;21.56;84.57
57606;BME280;43430;48.204;11.556;2023-07-20T09:46:48;95847.41;;;21.68;80.25
57606;BME280;43430;48.204;11.556;2023-07-20T09:49:14;95855.78;;;21.80;86.01
57606;BME280;43430;48.204;11.556;2023-07-20T09:51:40;95844.66;;;21.87;84.23
57606;BME280;43430;48.204;11.556;2023-07-20T09:54:07;95853.88;;;21.81;85.38
57606;BME280;43430;48.204;11.556;2023-07-20T09:56:34;95852.59;;;21.78;81.59
57606;BME280;43430;48.204;11.556;2023-07-20T09:59:00;95843.47;;;21.93;84.15
57606;BME280;43430;48.204;11.556;2023-07-20T10:01:26;95832.75;;;22.07;82.22
57606;BME280;43430;48.204;11.556;2023-07-20T10:03:58;95843.47;;;21.79;84.11
57606;BME280;43430;48.204;11.556;2023-07-20T10:06:24;95848.50;;;21.16;89.40
57606;BME280;43430;48.204;11.556;2023-07-20T10:08:53;95840.84;;;20.90;91.03
57606;BME280;43430;48.204;11.556;2023-07-20T10:11:22;95840.63;;;21.05;90.00
57606;BME280;43430;48.204;11.556;2023-07-20T10:13:51;95841.31;;;21.49;84.22
57606;BME280;43430;48.204;11.556;2023-07-20T10:16:28;95835.09;;;21.16;81.97
57606;BME280;43430;48.204;11.556;2023-07-20T10:19:19;95839.75;;;21.10;82.16
57606;BME280;43430;48.204;11.556;2023-07-20T10:22:00;95837.44;;;21.55;82.28
57606;BME280;43430;48.204;11.556;2023-07-20T10:24:29;95841.53;;;21.66;81.93
57606;BME280;43430;48.204;11.556;2023-07-20T10:26:57;95836.00;;;21.44;81.92
57606;BME280;43430;48.204;11.556;2023-07-20T10:29:23;95834.25;;;21.53;87.37
57606;BME280;43430;48.204;11.556;2023-07-20T10:31:49;95828.41;;;21.32;84.70
57606;BME280;43430;48.204;11.556;2023-07-20T10:34:16;95832.44;;;21.35;86.63
57606;BME280;43430;48.204;11.556;2023-07-20T10:36:45;95825.09;;;21.21;87.54
57606;BME280;43430;48.204;11.556;2023-07-20T10:39:27;95826.41;;;21.56;89.34
57606;BME280;43430;48.204;11.556;2023-07-20T10:42:02;95816.03;;;22.10;84.36
57606;BME280;43430;48.204;11.556;2023-07-20T10:44:29;95821.81;;;22.45;83.48
57606;BME280;43430;48.204;11.556;2023-07-20T10:47:02;95823.47;;;21.72;82.81
57606;BME280;43430;48.204;11.556;2023-07-20T10:49:28;95820.44;;;21.46;87.25
57606;BME280;43430;48.204;11.556;2023-07-20T10:51:58;95809.75;;;22.01;88.84
57606;BME280;43430;48.204;11.556;2023-07-20T10:56:49;95811.25;;;21.93;84.89
57606;BME280;43430;48.204;11.556;2023-07-20T11:01:56;95815.47;;;22.27;81.38
57606;BME280;43430;48.204;11.556;2023-07-20T11:04:44;95815.47;;;22.27;81.30
57606;BME280;43430;48.204;11.556;2023-07-20T11:07:10;95812.25;;;22.39;82.79
57606;BME280;43430;48.204;11.556;2023-07-20T11:09:40;95817.56;;;22.66;84.16
57606;BME280;43430;48.204;11.556;2023-07-20T11:12:10;95813.06;;;22.25;81.77
57606;BME280;43430;48.204;11.556;2023-07-20T11:14:40;95807.00;;;22.06;85.89
57606;BME280;43430;48.204;11.556;2023-07-20T11:17:13;95797.72;;;22.40;83.63
57606;BME280;43430;48.204;11.556;2023-07-20T11:19:39;95793.75;;;22.37;82.28
57606;BME280;43430;48.204;11.556;2023-07-20T11:22:08;95792.22;;;22.95;77.40
57606;BME280;43430;48.204;11.556;2023-07-20T11:24:34;95793.47;;;22.75;79.17
57606;BME280;43430;48.204;11.556;2023-07-20T11:27:00;95788.06;;;22.39;78.34
57606;BME280;43430;48.204;11.556;2023-07-20T11:29:28;95794.63;;;22.33;81.29
57606;BME280;43430;48.204;11.556;2023-07-20T11:31:53;95784.66;;;22.47;79.96
57606;BME280;43430;48.204;11.556;2023-07-20T11:34:20;95783.28;;;22.49;86.40
57606;BME280;43430;48.204;11.556;2023-07-20T11:36:47;95782.63;;;22.30;81.95
57606;BME280;43430;48.204;11.556;2023-07-20T11:39:16;95778.78;;;22.81;79.02
57606;BME280;43430;48.204;11.556;2023-07-20T11:41:50;95779.75;;;23.21;75.50
57606;BME280;43430;48.204;11.556;2023-07-20T11:44:20;95775.16;;;23.44;74.36
57606;BME280;43430;48.204;11.556;2023-07-20T11:46:53;95770.56;;;23.45;74.37
57606;BME280;43430;48.204;11.556;2023-07-20T11:49:24;95771.81;;;23.16;73.84
57606;BME280;43430;48.204;11.556;2023-07-20T11:51:50;95772.13;;;22.92;74.51
57606;BME280;43430;48.204;11.556;2023-07-20T11:54:15;95765.19;;;22.41;77.68
57606;BME280;43430;48.204;11.556;2023-07-20T11:56:41;95768.03;;;22.81;80.02
57606;BME280;43430;48.204;11.556;2023-07-20T11:59:07;95764.47;;;22.86;79.13
57606;BME280;43430;48.204;11.556;2023-07-20T12:01:32;95762.72;;;23.04;76.17
57606;BME280;43430;48.204;11.556;2023-07-20T12:03:59;95763.31;;;23.01;77.74
57606;BME280;43430;48.204;11.556;2023-07-20T12:06:27;95747.56;;;23.39;74.88
57606;BME280;43430;48.204;11.556;2023-07-20T12:08:57;95745.78;;;23.65;75.06
57606;BME280;43430;48.204;11.556;2023-07-20T12:11:33;95741.47;;;23.87;68.67
57606;BME280;43430;48.204;11.556;2023-07-20T12:14:00;95738.34;;;24.02;72.76
57606;BME280;43430;48.204;11.556;2023-07-20T12:16:29;95736.94;;;24.22;66.03
57606;BME280;43430;48.204;11.556;2023-07-20T12:19:06;95739.72;;;22.97;73.07
57606;BME280;43430;48.204;11.556;2023-07-20T12:21:34;95742.59;;;22.79;77.22
57606;BME280;43430;48.204;11.556;2023-07-20T12:24:02;95733.78;;;22.64;76.29
57606;BME280;43430;48.204;11.556;2023-07-20T12:26:29;95739.38;;;22.54;76.30
57606;BME280;43430;48.204;11.556;2023-07-20T12:28:55;95738.09;;;22.74;79.22
57606;BME280;43430;48.204;11.556;2023-07-20T12:31:22;95728.78;;;23.16;76.69
57606;BME280;43430;48.204;11.556;2023-07-20T12:33:48;95727.31;;;23.10;79.99
57606;BME280;43430;48.204;11.556;2023-07-20T12:36:14;95726.66;;;23.36;75.94
57606;BME280;43430;48.204;11.556;2023-07-20T12:38:40;95724.00;;;23.13;78.48
57606;BME280;43430;48.204;11.556;2023-07-20T12:41:07;95715.94;;;23.13;77.55
57606;BME280;43430;48.204;11.556;2023-07-20T12:43:32;95720.56;;;23.21;79.82
57606;BME280;43430;48.204;11.556;2023-07-20T12:45:58;95725.25;;;23.07;76.06
57606;BME280;43430;48.204;11.556;2023-07-20T12:48:23;95722.81;;;22.97;78.99
57606;BME280;43430;48.204;11.556;2023-07-20T12:50:49;95723.59;;;22.75;77.59
57606;BME280;43430;48.204;11.556;2023-07-20T12:53:14;95717.66;;;23.09;77.96